createdAt,value
2019-03-15T00:01:59.717Z,1.9
2019-03-15T00:04:59.564Z,1.9
2019-03-15T00:07:59.605Z,1.4
2019-03-15T00:11:00.222Z,1.4
2019-03-15T00:13:59.711Z,2
2019-03-15T00:17:00.148Z,1.5
2019-03-15T00:19:59.704Z,1.5
2019-03-15T00:22:59.826Z,1.5
2019-03-15T00:25:59.725Z,1.5
2019-03-15T00:28:59.748Z,1.9
2019-03-15T00:31:59.728Z,1.4
2019-03-15T00:34:59.765Z,1.9
2019-03-15T00:37:59.483Z,1.7
2019-03-15T00:40:59.553Z,2.3
2019-03-15T00:43:59.564Z,1.9
2019-03-15T00:46:59.908Z,2.1
2019-03-15T00:49:59.618Z,1.4
2019-03-15T00:52:59.616Z,1.4
2019-03-15T00:55:59.634Z,2.4
2019-03-15T00:58:59.656Z,1.6
2019-03-15T01:01:59.706Z,1.5
2019-03-15T01:04:59.683Z,2
2019-03-15T01:07:59.736Z,1.5
2019-03-15T01:10:59.515Z,1.8
2019-03-15T01:13:59.764Z,1.4
2019-03-15T01:17:01.180Z,1.8
2019-03-15T01:19:59.573Z,1.4
2019-03-15T01:22:59.522Z,1.4
2019-03-15T01:25:59.793Z,1.3
2019-03-15T01:28:59.611Z,1.3
2019-03-15T01:31:59.623Z,1.4
2019-03-15T01:34:59.650Z,1.5
2019-03-15T01:38:00.130Z,1.5
2019-03-15T01:41:00.239Z,1.5
2019-03-15T01:43:59.789Z,1.4
2019-03-15T01:46:59.700Z,1.4
2019-03-15T01:49:59.720Z,1.4
2019-03-15T01:52:59.431Z,1.4
2019-03-15T01:55:59.633Z,1.4
2019-03-15T01:58:59.677Z,1.5
2019-03-15T02:01:59.479Z,1.9
2019-03-15T02:04:59.502Z,1.9
2019-03-15T02:08:01.154Z,1.4
2019-03-15T02:10:59.616Z,1.4
2019-03-15T02:13:59.600Z,1.4
2019-03-15T02:17:01.005Z,1.7
2019-03-15T02:19:59.607Z,1.7
2019-03-15T02:22:59.778Z,1.4
2019-03-15T02:25:59.582Z,1.5
2019-03-15T02:28:59.530Z,1.5
2019-03-15T02:31:59.636Z,1.6
2019-03-15T02:34:59.607Z,1.3
2019-03-15T02:38:00.660Z,1.5
2019-03-15T02:40:59.571Z,1.5
2019-03-15T02:43:59.678Z,1.4
2019-03-15T02:46:59.667Z,1.7
2019-03-15T02:50:02.368Z,1.4
2019-03-15T02:52:59.874Z,1.5
2019-03-15T02:55:59.915Z,1.4
2019-03-15T02:58:59.745Z,1.6
2019-03-15T03:02:01.126Z,1.8
2019-03-15T03:04:59.557Z,1.5
2019-03-15T03:07:59.515Z,1.4
2019-03-15T03:10:59.689Z,1.5
2019-03-15T03:13:59.835Z,1.9
2019-03-15T03:16:59.595Z,1.3
2019-03-15T03:19:59.612Z,1.3
2019-03-15T03:22:59.622Z,1.5
2019-03-15T03:26:00.086Z,1.4
2019-03-15T03:29:00.084Z,1.7
2019-03-15T03:31:59.877Z,1.7
2019-03-15T03:34:59.701Z,1.5
2019-03-15T03:37:59.521Z,1.5
2019-03-15T03:41:02.277Z,1.6
2019-03-15T03:43:59.565Z,1.9
2019-03-15T03:46:59.606Z,1.4
2019-03-15T03:49:59.586Z,1.5
2019-03-15T03:52:59.594Z,1.7
2019-03-15T03:55:59.562Z,1.5
2019-03-15T03:58:59.590Z,1.5
2019-03-15T04:01:59.654Z,2.6
2019-03-15T04:04:59.576Z,2.5
2019-03-15T04:07:59.773Z,1.9
2019-03-15T04:10:59.702Z,1.4
2019-03-15T04:13:59.487Z,1.4
2019-03-15T04:16:59.414Z,1.4
2019-03-15T04:19:59.477Z,1.7
2019-03-15T04:22:59.502Z,1.5
2019-03-15T04:25:59.505Z,1.4
2019-03-15T04:28:59.451Z,1.5
2019-03-15T04:31:59.465Z,1.3
2019-03-15T04:34:59.626Z,1.4
2019-03-15T04:37:59.527Z,1.5
2019-03-15T04:40:59.588Z,1.4
2019-03-15T04:43:59.633Z,1.3
2019-03-15T04:46:59.592Z,1.4
2019-03-15T04:49:59.500Z,1.3
2019-03-15T04:52:59.470Z,1.3
2019-03-15T04:55:59.483Z,1.5
2019-03-15T04:58:59.528Z,1.5
2019-03-15T05:01:59.608Z,1.3
2019-03-15T05:05:01.443Z,1.4
2019-03-15T05:07:59.596Z,1.4
2019-03-15T05:10:59.719Z,1.7
2019-03-15T05:13:59.734Z,1.3
2019-03-15T05:16:59.604Z,1.8
2019-03-15T05:19:59.669Z,1.4
2019-03-15T05:22:59.670Z,1.8
2019-03-15T05:25:59.390Z,1.2
2019-03-15T05:28:59.370Z,1.3
2019-03-15T05:31:59.502Z,1.3
2019-03-15T05:34:59.554Z,1.3
2019-03-15T05:37:59.443Z,1.3
2019-03-15T05:40:59.778Z,1.6
2019-03-15T05:43:59.503Z,1.5
2019-03-15T05:46:59.515Z,1.4
2019-03-15T05:49:59.531Z,2
2019-03-15T05:52:59.637Z,1.7
2019-03-15T05:55:59.916Z,1.4
2019-03-15T05:58:59.698Z,1.5
2019-03-15T06:01:59.580Z,3.1
2019-03-15T06:04:59.552Z,4.4
2019-03-15T06:07:59.531Z,5.6
2019-03-15T06:10:59.543Z,5.3
2019-03-15T06:13:59.486Z,6.8
2019-03-15T06:16:59.536Z,6.8
2019-03-15T06:19:59.647Z,4.4
2019-03-15T06:22:59.993Z,7.4
2019-03-15T06:25:59.722Z,7.4
2019-03-15T06:29:02.260Z,4.9
2019-03-15T06:31:59.766Z,5.4
2019-03-15T06:34:59.432Z,4.8
2019-03-15T06:37:59.392Z,3.3
2019-03-15T06:41:00.712Z,3.7
2019-03-15T06:43:59.561Z,3.5
2019-03-15T06:46:59.643Z,4.1
2019-03-15T06:49:59.609Z,5
2019-03-15T06:52:59.477Z,2.7
2019-03-15T06:55:59.477Z,2.8
2019-03-15T06:58:59.672Z,3.5
2019-03-15T07:01:59.614Z,3.6
2019-03-15T07:04:59.973Z,4.2
2019-03-15T07:07:59.572Z,2.3
2019-03-15T07:10:59.381Z,3.1
2019-03-15T07:13:59.510Z,3.6
2019-03-15T07:16:59.554Z,3.6
2019-03-15T07:19:59.659Z,4.5
2019-03-15T07:22:59.710Z,3.2
2019-03-15T07:25:59.583Z,3.2
2019-03-15T07:28:59.566Z,3.5
2019-03-15T07:31:59.934Z,2.9
2019-03-15T07:34:59.570Z,2.6
2019-03-15T07:37:59.529Z,2.5
2019-03-15T07:40:59.541Z,3.1
2019-03-15T07:43:59.672Z,2.6
2019-03-15T07:46:59.576Z,2.1
2019-03-15T07:49:59.662Z,4.1
2019-03-15T07:52:59.344Z,2.8
2019-03-15T07:55:59.357Z,2.9
2019-03-15T07:58:59.834Z,3.3
2019-03-15T08:01:59.420Z,3.5
2019-03-15T08:04:59.413Z,2.9
2019-03-15T08:07:59.554Z,2.8
2019-03-15T08:10:59.678Z,3
2019-03-15T08:13:59.416Z,3.5
2019-03-15T08:16:59.616Z,2.4
2019-03-15T08:19:59.691Z,3.4
2019-03-15T08:22:59.372Z,3.2
2019-03-15T08:25:59.331Z,2.2
2019-03-15T08:28:59.481Z,2.8
2019-03-15T08:31:59.555Z,2.4
2019-03-15T08:34:59.500Z,3
2019-03-15T08:37:59.540Z,2.8
2019-03-15T08:40:59.563Z,2.6
2019-03-15T08:43:59.585Z,1.7
2019-03-15T08:46:59.662Z,2.6
2019-03-15T08:49:59.639Z,2
2019-03-15T08:52:59.627Z,4.4
2019-03-15T08:55:59.422Z,5.3
2019-03-15T08:58:59.576Z,2
2019-03-15T09:01:59.318Z,3.7
2019-03-15T09:04:59.368Z,2.2
2019-03-15T09:07:59.429Z,2.2
2019-03-15T09:10:59.424Z,2
2019-03-15T09:13:59.462Z,1.8
2019-03-15T09:16:59.487Z,2.1
2019-03-15T09:19:59.488Z,2.3
2019-03-15T09:22:59.642Z,1.9
2019-03-15T09:25:59.494Z,2.4
2019-03-15T09:28:59.369Z,1.9
2019-03-15T09:32:09.848Z,1.8
2019-03-15T09:34:59.497Z,2.1
2019-03-15T09:37:59.350Z,5.2
2019-03-15T09:40:59.486Z,7.5
2019-03-15T09:43:59.408Z,4.2
2019-03-15T09:47:03.041Z,5.2
2019-03-15T09:49:59.454Z,3.6
2019-03-15T09:52:59.674Z,2.3
2019-03-15T09:55:59.621Z,4.6
2019-03-15T09:58:59.454Z,6
2019-03-15T10:01:59.468Z,2.2
2019-03-15T10:05:11.998Z,2.6
2019-03-15T10:07:59.585Z,2.6
2019-03-15T10:10:59.641Z,2.1
2019-03-15T10:14:02.621Z,4.5
2019-03-15T10:16:59.500Z,1.7
2019-03-15T10:19:59.549Z,2.2
2019-03-15T10:23:06.859Z,6.1
2019-03-15T10:25:59.386Z,4.9
2019-03-15T10:28:59.309Z,3.1
2019-03-15T10:31:59.478Z,2.1
2019-03-15T10:34:59.305Z,3
2019-03-15T10:37:59.493Z,2.6
2019-03-15T10:41:01.771Z,2
2019-03-15T10:43:59.428Z,2.1
2019-03-15T10:46:59.623Z,1.9
2019-03-15T10:49:59.605Z,2.7
2019-03-15T10:52:59.540Z,2.9
2019-03-15T10:56:01.057Z,4.7
2019-03-15T10:58:59.465Z,8.1
2019-03-15T11:01:59.305Z,2.6
2019-03-15T11:04:59.350Z,4.4
2019-03-15T11:07:59.454Z,4.1
2019-03-15T11:10:59.362Z,5.5
2019-03-15T11:13:59.354Z,1.9
2019-03-15T11:16:59.367Z,3
2019-03-15T11:19:59.472Z,2.9
2019-03-15T11:22:59.631Z,4.7
2019-03-15T11:26:14.401Z,4
2019-03-15T11:28:59.477Z,7.8
2019-03-15T11:31:59.480Z,6.2
2019-03-15T11:34:59.523Z,3.7
2019-03-15T11:37:59.270Z,4.4
2019-03-15T11:40:59.369Z,5.7
2019-03-15T11:43:59.384Z,4.9
2019-03-15T11:46:59.495Z,3
2019-03-15T11:49:59.349Z,5.7
2019-03-15T11:52:59.333Z,4.1
2019-03-15T11:55:59.360Z,2.6
2019-03-15T11:58:59.504Z,3.9
2019-03-15T12:02:04.775Z,2.3
2019-03-15T12:04:59.586Z,4.3
2019-03-15T12:07:59.330Z,4
2019-03-15T12:10:59.297Z,2.7
2019-03-15T12:13:59.500Z,4.3
2019-03-15T12:16:59.246Z,2.3
2019-03-15T12:19:59.354Z,3.5
2019-03-15T12:22:59.308Z,2.6
2019-03-15T12:25:59.363Z,3.1
2019-03-15T12:28:59.409Z,3.3
2019-03-15T12:31:59.355Z,1.6
2019-03-15T12:34:59.318Z,2
2019-03-15T12:37:59.439Z,1.9
2019-03-15T12:40:59.550Z,2.1
2019-03-15T12:43:59.366Z,1.9
2019-03-15T12:46:59.629Z,2.3
2019-03-15T12:49:59.436Z,2.1
2019-03-15T12:52:59.171Z,1.6
2019-03-15T12:55:59.357Z,2.7
2019-03-15T12:58:59.245Z,3.3
2019-03-15T13:01:59.359Z,1.8
2019-03-15T13:04:59.647Z,3.9
2019-03-15T13:07:59.346Z,3
2019-03-15T13:10:59.425Z,1.9
2019-03-15T13:13:59.454Z,1.5
2019-03-15T13:16:59.443Z,1.9
2019-03-15T13:19:59.531Z,2
2019-03-15T13:22:59.537Z,2.5
2019-03-15T13:25:59.752Z,4.7
2019-03-15T13:28:59.410Z,1.6
2019-03-15T13:31:59.345Z,2.2
2019-03-15T13:34:59.196Z,1.4
2019-03-15T13:37:59.261Z,2
2019-03-15T13:40:59.408Z,1.7
2019-03-15T13:43:59.247Z,2.8
2019-03-15T13:46:59.280Z,3.1
2019-03-15T13:49:59.745Z,1.3
2019-03-15T13:52:59.404Z,2.3
2019-03-15T13:55:59.325Z,2.6
2019-03-15T13:58:59.514Z,1.3
2019-03-15T14:01:59.391Z,1.3
2019-03-15T14:04:59.387Z,2
2019-03-15T14:08:12.480Z,9.1
2019-03-15T14:10:59.519Z,2
2019-03-15T14:13:59.168Z,3.1
2019-03-15T14:16:59.171Z,1.7
2019-03-15T14:19:59.363Z,3.1
2019-03-15T14:22:59.457Z,3.8
2019-03-15T14:25:59.565Z,2.7
2019-03-15T14:28:59.342Z,1.5
2019-03-15T14:31:59.468Z,2.7
2019-03-15T14:34:59.413Z,2
2019-03-15T14:38:00.584Z,2.3
2019-03-15T14:40:59.671Z,2
2019-03-15T14:43:59.372Z,1.3
2019-03-15T14:46:59.437Z,1.8
2019-03-15T14:49:59.281Z,2
2019-03-15T14:52:59.164Z,1.8
2019-03-15T14:55:59.316Z,2.3
2019-03-15T14:58:59.544Z,2.4
2019-03-15T15:01:59.255Z,1.1
2019-03-15T15:04:59.382Z,2
2019-03-15T15:07:59.357Z,1.5
2019-03-15T15:10:59.418Z,1.6
2019-03-15T15:13:59.379Z,2.4
2019-03-15T15:16:59.440Z,2.2
2019-03-15T15:19:59.415Z,1.1
2019-03-15T15:22:59.394Z,1.3
2019-03-15T15:25:59.604Z,1.2
2019-03-15T15:28:59.126Z,1.1
2019-03-15T15:31:59.295Z,1
2019-03-15T15:34:59.258Z,1.2
2019-03-15T15:37:59.220Z,1.8
2019-03-15T15:40:59.442Z,1.1
2019-03-15T15:43:59.550Z,1.9
2019-03-15T15:46:59.481Z,1.1
2019-03-15T15:49:59.296Z,1.9
2019-03-15T15:52:59.508Z,2.6
2019-03-15T15:55:59.283Z,1.1
2019-03-15T15:58:59.346Z,1.2
2019-03-15T16:01:59.126Z,1.8
2019-03-15T16:04:59.608Z,1.2
2019-03-15T16:07:59.267Z,1.1
2019-03-15T16:10:59.509Z,1.2
2019-03-15T16:13:59.224Z,1.1
2019-03-15T16:16:59.238Z,1.2
2019-03-15T16:19:59.334Z,1.2
2019-03-15T16:22:59.537Z,1.2
2019-03-15T16:25:59.328Z,1.2
2019-03-15T16:28:59.466Z,1
2019-03-15T16:31:59.487Z,1.1
2019-03-15T16:34:59.399Z,1.1
2019-03-15T16:37:59.668Z,1.9
2019-03-15T16:40:59.406Z,0.9
2019-03-15T16:43:59.235Z,1.5
2019-03-15T16:46:59.269Z,0.9
2019-03-15T16:49:59.264Z,1.1
2019-03-15T16:52:59.445Z,0.9
2019-03-15T16:55:59.327Z,0.9
2019-03-15T16:58:59.229Z,0.8
2019-03-15T17:01:59.225Z,1
2019-03-15T17:04:59.282Z,1.1
2019-03-15T17:07:59.394Z,0.8
2019-03-15T17:10:59.371Z,1.2
2019-03-15T17:13:59.764Z,1.1
2019-03-15T17:16:59.200Z,1.2
2019-03-15T17:19:59.136Z,1
2019-03-15T17:22:59.352Z,1
2019-03-15T17:25:59.344Z,1
2019-03-15T17:28:59.348Z,1
2019-03-15T17:31:59.282Z,0.9
2019-03-15T17:34:59.635Z,0.9
2019-03-15T17:37:59.235Z,1
2019-03-15T17:40:59.366Z,0.9
2019-03-15T17:43:59.378Z,0.8
2019-03-15T17:46:59.385Z,0.8
2019-03-15T17:49:59.316Z,0.9
2019-03-15T17:52:59.388Z,0.9
2019-03-15T17:55:59.041Z,0.8
2019-03-15T17:59:13.157Z,1
2019-03-15T18:02:00.074Z,0.8
2019-03-15T18:04:59.199Z,0.9
2019-03-15T18:07:59.135Z,0.9
2019-03-15T18:10:59.280Z,0.8
2019-03-15T18:14:00.339Z,1.2
2019-03-15T18:16:59.296Z,0.9
2019-03-15T18:19:59.340Z,0.8
2019-03-15T18:22:59.293Z,0.9
2019-03-15T18:25:59.402Z,0.8
2019-03-15T18:28:59.329Z,0.9
2019-03-15T18:31:59.110Z,1
2019-03-15T18:34:59.135Z,1
2019-03-15T18:37:59.187Z,0.9
2019-03-15T18:40:59.209Z,1.8
2019-03-15T18:43:59.285Z,2.2
2019-03-15T18:46:59.226Z,1.6
2019-03-15T18:49:59.270Z,1.3
2019-03-15T18:52:59.534Z,1.1
2019-03-15T18:55:59.170Z,1.3
2019-03-15T18:59:00.486Z,1.3
2019-03-15T19:01:59.097Z,1.2
2019-03-15T19:04:59.630Z,0.9
2019-03-15T19:07:59.297Z,1
2019-03-15T19:10:59.320Z,1.1
2019-03-15T19:13:59.316Z,1.1
2019-03-15T19:16:59.367Z,1
2019-03-15T19:19:59.372Z,0.8
2019-03-15T19:22:59.289Z,1.6
2019-03-15T19:25:59.165Z,3.3
2019-03-15T19:28:59.123Z,0.9
2019-03-15T19:31:59.055Z,1.8
2019-03-15T19:34:59.110Z,1
2019-03-15T19:37:59.250Z,1.4
2019-03-15T19:40:59.390Z,2.4
2019-03-15T19:43:59.334Z,1.3
2019-03-15T19:46:59.248Z,1.2
2019-03-15T19:49:59.347Z,1.1
2019-03-15T19:52:59.325Z,1.4
2019-03-15T19:55:59.248Z,1.3
2019-03-15T19:58:59.626Z,1
2019-03-15T20:01:59.141Z,1.2
2019-03-15T20:04:59.411Z,1.2
2019-03-15T20:07:59.238Z,1.1
2019-03-15T20:10:59.193Z,1.2
2019-03-15T20:13:59.363Z,1.2
2019-03-15T20:16:59.249Z,1.6
2019-03-15T20:19:59.489Z,1.9
2019-03-15T20:22:59.040Z,1.9
2019-03-15T20:25:59.070Z,1.8
2019-03-15T20:28:59.102Z,1.3
2019-03-15T20:31:59.189Z,2.4
2019-03-15T20:34:59.135Z,7.6
2019-03-15T20:37:59.130Z,1.9
2019-03-15T20:40:59.111Z,2.1
2019-03-15T20:44:01.234Z,1.2
2019-03-15T20:46:59.229Z,2.4
2019-03-15T20:49:59.214Z,1.3
2019-03-15T20:53:13.361Z,3.8
2019-03-15T20:55:59.363Z,2.1
2019-03-15T20:58:59.082Z,3.2
2019-03-15T21:01:59.180Z,1.8
2019-03-15T21:04:59.153Z,2.9
2019-03-15T21:07:59.226Z,1.8
2019-03-15T21:10:59.257Z,1.4
2019-03-15T21:13:59.392Z,1
2019-03-15T21:16:59.384Z,2.5
2019-03-15T21:19:59.418Z,1.1
2019-03-15T21:22:59.514Z,1.9
2019-03-15T21:25:59.110Z,1.7
2019-03-15T21:28:59.182Z,1.9
2019-03-15T21:31:59.549Z,1.2
2019-03-15T21:34:59.316Z,1.1
2019-03-15T21:37:59.206Z,2.1
2019-03-15T21:40:59.559Z,1.5
2019-03-15T21:43:59.078Z,1.3
2019-03-15T21:46:59.095Z,1
2019-03-15T21:49:59.157Z,5.8
2019-03-15T21:52:59.136Z,1.1
2019-03-15T21:55:59.213Z,2.5
2019-03-15T21:58:59.229Z,2.9
2019-03-15T22:01:59.401Z,1.5
2019-03-15T22:05:01.179Z,1.6
2019-03-15T22:07:59.435Z,1
2019-03-15T22:10:59.283Z,1.3
2019-03-15T22:13:59.094Z,1.2
2019-03-15T22:16:59.077Z,1.1
2019-03-15T22:19:59.052Z,0.9
2019-03-15T22:22:59.243Z,1
2019-03-15T22:25:59.078Z,1
2019-03-15T22:28:59.293Z,0.8
2019-03-15T22:31:59.275Z,0.8
2019-03-15T22:34:59.169Z,0.9
2019-03-15T22:37:59.197Z,0.9
2019-03-15T22:40:59.301Z,0.9
2019-03-15T22:43:59.141Z,1
2019-03-15T22:46:59.223Z,1
2019-03-15T22:49:59.828Z,0.8
2019-03-15T22:52:59.120Z,0.9
2019-03-15T22:55:59.253Z,1.1
2019-03-15T22:58:59.152Z,1.1
2019-03-15T23:01:59.281Z,1.3
2019-03-15T23:04:59.233Z,1.1
2019-03-15T23:07:59.485Z,1
2019-03-15T23:10:59.590Z,1
2019-03-15T23:13:58.930Z,0.9
2019-03-15T23:16:59.079Z,0.9
2019-03-15T23:19:59.097Z,0.9
2019-03-15T23:22:59.162Z,0.8
2019-03-15T23:25:59.201Z,0.7
2019-03-15T23:28:59.133Z,0.8
2019-03-15T23:31:59.108Z,0.8
2019-03-15T23:34:59.111Z,0.8
2019-03-15T23:37:59.202Z,1
2019-03-15T23:40:59.399Z,1
2019-03-15T23:43:58.963Z,0.8
2019-03-15T23:46:59.052Z,0.8
2019-03-15T23:49:59.252Z,0.8
2019-03-15T23:52:59.178Z,0.9
2019-03-15T23:55:59.723Z,0.7
2019-03-15T23:58:59.240Z,0.8
